Time;durP1;ratioP1;P1;durP2;ratioP2;P2;SDS_P1;SDS_P2;PMS_P1;PMS_P2;Temp;Humidity;BMP_temperature;BMP_pressure;BME280_temperature;BME280_humidity;BME280_pressure;Samples;Min_cycle;Max_cycle;Signal;HPM_P1;HPM_P2
2023/09/03 07:23:25;;;;;;;24.40;22.15;;;;;;;-145.79;97.14;78248.53;5282956;28;20402;-70
2023/09/03 07:26:04;;;;;;;25.35;23.08;;;;;;;-145.79;97.30;78246.41;5287169;28;20468;-69
2023/09/03 07:28:37;;;;;;;24.92;22.73;;;;;;;-145.79;97.40;78242.19;5285629;28;20110;-69
2023/09/03 07:31:08;;;;;;;24.30;22.13;;;;;;;-145.79;96.86;78242.19;5283158;28;20400;-70
2023/09/03 07:33:39;;;;;;;24.58;22.45;;;;;;;-145.79;97.07;78242.19;5282868;28;20040;-70
2023/09/03 07:36:11;;;;;;;23.15;21.02;;;;;;;-145.79;97.17;78235.81;5290393;28;20028;-70
2023/09/03 07:38:42;;;;;;;24.92;22.75;;;;;;;-145.79;97.27;78235.81;5280928;28;20028;-70
2023/09/03 07:41:14;;;;;;;22.15;20.33;;;;;;;-145.79;98.27;78214.63;5290191;28;20035;-68
2023/09/03 07:43:46;;;;;;;23.40;21.08;;;;;;;-145.79;97.64;78208.25;5283421;28;20025;-68
2023/09/03 07:46:18;;;;;;;23.15;21.15;;;;;;;-145.79;97.84;78208.25;5289885;28;20024;-69
2023/09/03 07:48:49;;;;;;;23.67;21.58;;;;;;;-145.79;97.51;78210.38;5290617;28;20016;-69
2023/09/03 07:51:23;;;;;;;22.02;20.13;;;;;;;-145.79;98.74;78180.69;5282832;28;20091;-73
2023/09/03 07:53:54;;;;;;;23.55;21.55;;;;;;;-145.79;97.62;78178.56;5295606;28;20387;-73
2023/09/03 07:56:26;;;;;;;23.60;21.50;;;;;;;-145.79;97.49;78161.63;5285849;28;20025;-77
2023/09/03 07:58:59;;;;;;;23.38;21.27;;;;;;;-145.79;97.54;78161.63;5280702;28;20107;-76
2023/09/03 08:01:31;;;;;;;21.15;19.35;;;;;;;-145.79;97.53;78148.91;5276823;28;20016;-77
2023/09/03 08:04:03;;;;;;;24.55;22.55;;;;;;;-145.79;97.02;78142.53;5280816;28;20024;-76
2023/09/03 08:06:34;;;;;;;23.50;21.60;;;;;;;-145.79;96.20;78138.28;5279867;28;20032;-76
2023/09/03 08:09:06;;;;;;;22.98;21.02;;;;;;;-145.79;95.10;78140.41;5279058;28;20055;-68
2023/09/03 08:11:37;;;;;;;23.30;21.30;;;;;;;-145.79;95.15;78134.06;5288667;28;20468;-69
2023/09/03 08:14:09;;;;;;;24.13;22.02;;;;;;;-145.79;94.92;78123.44;5285971;28;20099;-68
2023/09/03 08:16:43;;;;;;;23.50;21.60;;;;;;;-145.79;94.38;78108.63;5289040;28;20043;-68
2023/09/03 08:19:14;;;;;;;24.30;22.30;;;;;;;-145.79;93.99;78106.50;5289673;28;20027;-69
2023/09/03 08:21:47;;;;;;;24.38;22.27;;;;;;;-145.79;93.95;78098.00;5288441;28;20048;-68
2023/09/03 08:24:18;;;;;;;23.98;21.88;;;;;;;-145.79;93.36;78091.66;5285745;28;20084;-67
2023/09/03 08:26:50;;;;;;;22.42;20.65;;;;;;;-145.79;93.01;78074.69;5288945;28;20040;-68
2023/09/03 08:29:21;;;;;;;22.50;20.70;;;;;;;-145.79;92.38;78070.44;5289606;28;20515;-68
2023/09/03 08:31:52;;;;;;;21.83;19.98;;;;;;;-145.79;92.31;78061.97;5287311;28;20029;-68
2023/09/03 08:34:24;;;;;;;22.85;20.90;;;;;;;-145.79;92.22;78051.38;5273637;28;20216;-69
2023/09/03 08:36:55;;;;;;;20.70;18.90;;;;;;;-145.79;91.76;78047.13;5269907;28;20029;-67
2023/09/03 08:39:26;;;;;;;21.27;19.52;;;;;;;-145.79;91.26;78040.78;5273686;28;20021;-68
2023/09/03 08:41:58;;;;;;;22.13;20.20;;;;;;;-145.79;91.34;78036.53;5271702;28;20054;-69
2023/09/03 08:44:42;;;;;;;20.40;18.70;;;;;;;-145.79;90.97;78030.19;5271385;28;20029;-68
2023/09/03 08:47:16;;;;;;;21.45;19.63;;;;;;;-145.79;90.50;78021.69;5275585;28;20020;-68
2023/09/03 08:49:48;;;;;;;750.60;679.15;;;;;;;-145.79;91.35;77989.91;5276820;28;20472;-69
2023/09/03 08:52:20;;;;;;;76.22;69.20;;;;;;;-145.79;90.55;77994.13;5266560;28;20031;-68
2023/09/03 08:54:54;;;;;;;23.10;20.98;;;;;;;-145.79;90.42;77970.81;5276294;28;20416;-68
2023/09/03 08:57:27;;;;;;;17.55;16.05;;;;;;;-145.79;89.95;77962.34;5273587;28;20025;-69
2023/09/03 08:59:58;;;;;;;16.73;15.32;;;;;;;-145.79;88.81;77958.09;5272888;28;20063;-69
2023/09/03 09:02:30;;;;;;;15.02;13.75;;;;;;;-145.79;87.04;77943.25;5275305;28;20122;-68
2023/09/03 09:05:04;;;;;;;16.17;14.77;;;;;;;-145.79;87.53;77926.28;5277080;28;20421;-69
2023/09/03 09:07:36;;;;;;;16.48;14.80;;;;;;;-145.79;86.27;77928.41;5273042;28;20553;-68
2023/09/03 09:10:16;;;;;;;14.60;13.32;;;;;;;-145.79;86.06;77915.69;5264255;28;20028;-68
2023/09/03 09:13:00;;;;;;;17.13;15.40;;;;;;;-145.79;85.27;77900.84;5248208;28;20042;-69
2023/09/03 09:15:37;;;;;;;15.48;14.18;;;;;;;-145.79;84.38;77898.75;5273908;28;20037;-68
2023/09/03 09:18:09;;;;;;;15.55;14.15;;;;;;;-145.79;83.52;77894.50;5272800;28;20098;-68
2023/09/03 09:20:41;;;;;;;15.70;14.40;;;;;;;-145.79;84.47;77881.78;5274251;28;20033;-68
2023/09/03 09:23:20;;;;;;;16.70;15.45;;;;;;;-145.79;84.45;77864.81;5275160;28;20063;-69
2023/09/03 09:25:55;;;;;;;14.98;13.63;;;;;;;-145.79;83.31;77858.47;5272870;28;20032;-67
2023/09/03 09:28:26;;;;;;;12.88;11.65;;;;;;;-145.79;81.49;77860.56;5276323;28;20063;-68
2023/09/03 09:30:58;;;;;;;11.63;10.52;;;;;;;-145.79;80.83;77852.09;5271715;28;20060;-68
2023/09/03 09:33:30;;;;;;;10.60;9.65;;;;;;;-145.79;81.31;77839.38;5272152;28;20029;-69
2023/09/03 09:36:13;;;;;;;10.80;9.70;;;;;;;-145.79;81.26;77824.53;5274850;28;20028;-69
2023/09/03 09:38:44;;;;;;;10.60;9.52;;;;;;;-145.79;80.75;77809.69;5274837;28;20111;-68
2023/09/03 09:41:23;;;;;;;11.20;10.30;;;;;;;-145.79;80.16;77801.22;5271553;28;20524;-68
2023/09/03 09:43:55;;;;;;;10.30;9.43;;;;;;;-145.79;78.13;77805.47;5271676;28;20032;-68
2023/09/03 09:46:28;;;;;;;10.20;9.20;;;;;;;-145.79;79.29;77809.69;5270768;28;20079;-68
2023/09/03 09:49:01;;;;;;;10.65;9.43;;;;;;;-145.79;80.72;77805.47;5272803;28;20033;-68
2023/09/03 09:51:32;;;;;;;10.35;9.45;;;;;;;-145.79;79.90;77796.97;5274841;28;20020;-68
2023/09/03 09:54:04;;;;;;;13.30;9.70;;;;;;;-145.79;79.84;77788.50;5274842;28;20035;-69
2023/09/03 09:56:36;;;;;;;11.65;10.50;;;;;;;-145.79;78.61;77780.03;5271306;28;20380;-68
2023/09/03 09:59:10;;;;;;;12.15;10.68;;;;;;;-145.79;79.22;77784.25;5271532;28;20025;-68
2023/09/03 10:01:46;;;;;;;11.73;10.60;;;;;;;-145.79;78.54;77788.50;5266005;28;20039;-69
2023/09/03 10:04:26;;;;;;;11.80;10.43;;;;;;;-145.79;79.74;77771.53;5272754;28;20036;-68
2023/09/03 10:06:59;;;;;;;10.35;9.43;;;;;;;-145.79;79.47;77765.19;5274590;28;20027;-69
2023/09/03 10:09:30;;;;;;;10.20;9.18;;;;;;;-145.79;78.24;77756.72;5273060;28;20480;-69
2023/09/03 10:12:06;;;;;;;10.07;9.13;;;;;;;-145.79;77.25;77758.81;5270301;28;20031;-68
2023/09/03 10:14:38;;;;;;;9.43;8.57;;;;;;;-145.79;76.73;77754.59;5273510;28;20397;-68
2023/09/03 10:17:10;;;;;;;10.27;8.48;;;;;;;-145.79;77.44;77741.88;5268178;28;20036;-68
2023/09/03 10:19:50;;;;;;;9.73;8.23;;;;;;;-145.79;77.66;77729.16;5272714;28;20037;-67
2023/09/03 10:22:23;;;;;;;8.57;7.78;;;;;;;-145.79;76.89;77724.91;5274740;28;20072;-70
2023/09/03 10:25:00;;;;;;;9.93;9.02;;;;;;;-145.79;76.43;77714.31;5270981;28;20033;-68
2023/09/03 10:27:36;;;;;;;9.20;8.43;;;;;;;-145.79;76.96;77710.06;5270246;28;20047;-66
2023/09/03 10:30:12;;;;;;;10.05;9.15;;;;;;;-145.79;75.62;77699.47;5263387;28;20035;-67
2023/09/03 10:32:45;;;;;;;8.20;7.50;;;;;;;-145.79;74.71;77691.00;5271092;28;20401;-67
2023/09/03 10:35:16;;;;;;;9.20;8.27;;;;;;;-145.79;72.78;77691.00;5272943;28;20051;-68
2023/09/03 10:37:50;;;;;;;8.25;7.45;;;;;;;-145.79;71.48;77686.75;5271557;28;20029;-68
2023/09/03 10:40:27;;;;;;;6.72;6.13;;;;;;;-145.79;70.68;77667.69;5273574;28;20043;-68
2023/09/03 10:43:22;;;;;;;8.90;7.25;;;;;;;-145.79;71.28;77652.84;5274130;28;20044;-68
2023/09/03 10:46:04;;;;;;;8.20;7.40;;;;;;;-145.79;71.14;77652.84;5273946;28;20028;-68
2023/09/03 10:48:36;;;;;;;7.15;6.55;;;;;;;-145.79;71.96;77633.75;5269852;28;20151;-68
2023/09/03 10:51:07;;;;;;;6.75;6.25;;;;;;;-145.79;69.09;77640.13;5267558;28;20481;-68
2023/09/03 10:53:41;;;;;;;7.18;6.55;;;;;;;-145.79;69.24;77631.63;5277033;28;20166;-69
2023/09/03 10:56:16;;;;;;;10.45;9.27;;;;;;;-145.79;69.69;77625.28;5271181;28;20028;-68
2023/09/03 10:58:52;;;;;;;;;;;;;;;-145.79;71.02;77612.56;5274989;28;20024;-69
2023/09/03 11:01:31;;;;;;;7.47;6.75;;;;;;;-145.79;71.00;77614.69;5270714;28;20003;-68
2023/09/03 11:04:04;;;;;;;5.30;4.80;;;;;;;-145.79;66.88;77610.44;5270370;28;20029;-68
2023/09/03 11:06:35;;;;;;;4.88;4.47;;;;;;;-145.79;67.25;77593.47;5273409;28;20073;-69
2023/09/03 11:09:09;;;;;;;6.32;5.72;;;;;;;-145.79;66.71;77599.84;5266177;28;20028;-69
2023/09/03 11:11:41;;;;;;;5.07;4.57;;;;;;;-145.79;64.92;77597.72;5270391;28;20245;-68
2023/09/03 11:14:13;;;;;;;4.80;4.40;;;;;;;-145.79;64.53;77589.25;5270254;28;20025;-66
2023/09/03 11:16:44;;;;;;;6.15;5.55;;;;;;;-145.79;65.20;77576.53;5272595;28;20089;-68
2023/09/03 11:19:15;;;;;;;7.88;5.05;;;;;;;-145.79;63.59;77585.00;5274314;28;20471;-67
2023/09/03 11:21:47;;;;;;;4.38;4.00;;;;;;;-145.79;63.50;77568.03;5270498;28;20098;-67
2023/09/03 11:24:18;;;;;;;5.63;5.13;;;;;;;-145.79;62.10;77568.03;5269173;28;20032;-67
2023/09/03 11:27:10;;;;;;;5.97;5.45;;;;;;;-145.79;64.22;77568.03;5271912;28;20028;-67
2023/09/03 11:29:41;;;;;;;5.78;4.68;;;;;;;-145.79;64.58;77548.97;5271833;28;20045;-67
2023/09/03 11:32:12;;;;;;;4.70;4.30;;;;;;;-145.79;63.81;77559.56;5269610;28;20021;-68
2023/09/03 11:34:44;;;;;;;4.32;3.92;;;;;;;-145.79;62.85;77563.81;5271026;28;20087;-68
2023/09/03 11:37:15;;;;;;;4.97;4.18;;;;;;;-145.79;63.17;77534.13;5273204;28;20035;-68
2023/09/03 11:39:50;;;;;;;4.70;4.30;;;;;;;-145.79;61.31;77542.59;5273323;28;20032;-68
2023/09/03 11:42:25;;;;;;;7.82;3.40;;;;;;;-145.79;58.89;77538.38;5267646;28;20398;-68
2023/09/03 11:44:56;;;;;;;4.00;3.70;;;;;;;-145.79;61.32;77527.78;5271880;28;20102;-68
2023/09/03 11:47:27;;;;;;;4.35;3.90;;;;;;;-145.79;59.49;77548.97;5269949;28;20276;-68
2023/09/03 11:50:15;;;;;;;5.25;4.15;;;;;;;-145.79;60.04;77534.13;5270448;28;20021;-69
2023/09/03 11:52:54;;;;;;;4.07;3.67;;;;;;;-145.79;61.33;77532.00;5273432;28;20024;-69
2023/09/03 11:55:33;;;;;;;5.00;4.47;;;;;;;-145.79;61.94;77523.53;5269811;28;20372;-68
2023/09/03 11:58:08;;;;;;;4.88;3.85;;;;;;;-145.79;61.79;77508.69;5269174;28;20154;-67
2023/09/03 12:00:41;;;;;;;7.30;6.70;;;;;;;-145.79;60.17;77508.69;5264734;28;20040;-69
2023/09/03 12:03:14;;;;;;;4.18;3.35;;;;;;;-145.79;58.07;77504.47;5269953;28;20036;-69
2023/09/03 12:05:45;;;;;;;4.85;4.00;;;;;;;-145.79;58.29;77485.38;5272656;28;20024;-68
2023/09/03 12:08:20;;;;;;;3.60;2.75;;;;;;;-145.79;57.14;77483.25;5273491;28;20028;-69
2023/09/03 12:10:51;;;;;;;2.80;2.47;;;;;;;-145.79;55.42;77470.53;5273558;28;20033;-68
2023/09/03 12:13:38;;;;;;;3.33;3.03;;;;;;;-145.79;56.29;77453.59;5276644;28;20055;-69
2023/09/03 12:16:15;;;;;;;4.50;2.85;;;;;;;-145.79;56.72;77449.34;5266305;28;20038;-69
2023/09/03 12:18:57;;;;;;;3.25;3.00;;;;;;;-145.79;56.69;77440.88;5275552;28;20023;-68
2023/09/03 12:21:36;;;;;;;4.47;4.07;;;;;;;-145.79;57.35;77434.50;5275982;28;20131;-69
2023/09/03 12:24:07;;;;;;;4.03;3.50;;;;;;;-145.79;57.03;77426.03;5273337;28;20028;-69
2023/09/03 12:26:39;;;;;;;6.18;4.30;;;;;;;-145.79;57.51;77428.16;5273753;28;20017;-69
2023/09/03 12:29:21;;;;;;;4.00;3.70;;;;;;;-145.79;56.64;77415.44;5277278;28;20040;-68
2023/09/03 12:31:52;;;;;;;5.63;3.97;;;;;;;-145.79;58.02;77404.84;5274498;28;20028;-69
2023/09/03 12:34:39;;;;;;;4.20;3.38;;;;;;;-145.79;59.01;77379.41;5270799;28;20025;-69
2023/09/03 12:37:10;;;;;;;4.55;3.65;;;;;;;-145.79;55.69;77375.16;5265292;28;20035;-69
2023/09/03 12:39:41;;;;;;;4.43;4.03;;;;;;;-145.79;54.65;77377.28;5272569;28;20028;-68
2023/09/03 12:42:12;;;;;;;4.38;3.53;;;;;;;-145.79;55.74;77347.59;5264492;28;20041;-68
2023/09/03 12:44:44;;;;;;;4.65;3.85;;;;;;;-145.79;55.19;77368.78;5273159;28;20028;-68
2023/09/03 12:47:17;;;;;;;4.80;3.28;;;;;;;-145.79;55.13;77339.13;5275746;28;20028;-69
2023/09/03 12:49:48;;;;;;;4.03;3.72;;;;;;;-145.79;55.40;77356.06;5268794;28;20421;-69
2023/09/03 12:52:20;;;;;;;4.65;4.20;;;;;;;-145.79;55.96;77364.56;5275248;28;20055;-69
2023/09/03 12:54:51;;;;;;;4.38;3.97;;;;;;;-145.79;55.96;77358.19;5276311;28;20126;-69
2023/09/03 12:57:23;;;;;;;4.45;4.05;;;;;;;-145.79;54.67;77356.06;5273415;28;20103;-69
2023/09/03 12:59:54;;;;;;;5.70;4.20;;;;;;;-145.79;55.97;77347.59;5272615;28;20017;-69
2023/09/03 13:02:29;;;;;;;4.13;3.72;;;;;;;-145.79;55.16;77339.13;5274509;28;20429;-69
2023/09/03 13:05:00;;;;;;;3.88;3.47;;;;;;;-145.79;54.32;77345.47;5269436;28;20021;-69
2023/09/03 13:07:31;;;;;;;4.32;3.17;;;;;;;-145.79;54.16;77343.38;5267541;28;20043;-68
2023/09/03 13:10:03;;;;;;;4.50;3.25;;;;;;;-145.79;54.38;77317.94;5276480;28;20452;-69
2023/09/03 13:12:34;;;;;;;3.50;3.00;;;;;;;-145.79;53.85;77309.44;5271744;28;20384;-69
2023/09/03 13:15:06;;;;;;;4.28;3.33;;;;;;;-145.79;53.44;77315.81;5275360;28;20020;-68
2023/09/03 13:17:38;;;;;;;3.78;3.40;;;;;;;-145.79;53.62;77284.00;5273561;28;20108;-68
2023/09/03 13:20:10;;;;;;;4.05;3.60;;;;;;;-145.79;52.40;77281.91;5272534;28;20500;-69
2023/09/03 13:22:42;;;;;;;3.55;3.25;;;;;;;-145.79;51.91;77275.53;5273614;28;20049;-69
2023/09/03 13:25:14;;;;;;;3.55;2.80;;;;;;;-145.79;51.46;77271.28;5275985;28;20143;-69
2023/09/03 13:27:45;;;;;;;3.75;3.35;;;;;;;-145.79;51.31;77262.81;5274178;28;20033;-68
2023/09/03 13:30:17;;;;;;;3.92;3.35;;;;;;;-145.79;50.84;77252.22;5275438;28;20035;-68
2023/09/03 13:32:48;;;;;;;5.18;3.28;;;;;;;-145.79;50.89;77262.81;5273871;28;20584;-69
2023/09/03 13:35:23;;;;;;;4.32;3.03;;;;;;;-145.79;51.38;77271.28;5272123;28;20464;-69
2023/09/03 13:37:54;;;;;;;2.72;2.53;;;;;;;-145.79;52.57;77250.09;5273357;28;20115;-69
2023/09/03 13:40:25;;;;;;;5.25;4.80;;;;;;;-145.79;54.22;77258.56;5273886;28;20151;-69
2023/09/03 13:42:57;;;;;;;4.68;4.28;;;;;;;-145.79;53.74;77250.09;5270145;28;20472;-68
2023/09/03 13:45:28;;;;;;;3.65;3.35;;;;;;;-145.79;52.67;77254.34;5275897;28;20499;-69
2023/09/03 13:48:00;;;;;;;4.45;3.50;;;;;;;-145.79;52.79;77254.34;5274219;28;20032;-68
2023/09/03 13:50:31;;;;;;;4.53;4.13;;;;;;;-145.79;52.81;77245.84;5270983;28;20421;-68
2023/09/03 13:53:02;;;;;;;4.43;3.88;;;;;;;-145.79;53.77;77231.03;5272369;28;20059;-68
2023/09/03 13:55:34;;;;;;;6.30;4.82;;;;;;;-145.79;52.81;77216.19;5275226;28;20490;-68
2023/09/03 13:58:06;;;;;;;4.68;4.18;;;;;;;-145.79;51.68;77218.31;5262902;28;20030;-69
2023/09/03 14:00:38;;;;;;;3.70;3.40;;;;;;;-145.79;52.37;77195.00;5275494;28;20107;-69
2023/09/03 14:03:09;;;;;;;3.90;3.53;;;;;;;-145.79;51.13;77216.19;5274655;28;20431;-69
2023/09/03 14:05:41;;;;;;;9.43;8.57;;;;;;;-145.79;52.00;77197.09;5270823;28;20060;-68
2023/09/03 14:08:12;;;;;;;5.85;3.90;;;;;;;-145.79;51.10;77216.19;5271584;28;20025;-68
2023/09/03 14:10:44;;;;;;;3.72;3.38;;;;;;;-145.79;51.59;77199.22;5274412;28;20044;-69
2023/09/03 14:13:15;;;;;;;4.53;3.38;;;;;;;-145.79;51.25;77201.34;5274641;28;20055;-69
2023/09/03 14:15:46;;;;;;;4.10;3.40;;;;;;;-145.79;51.48;77211.94;5266476;28;20490;-68
2023/09/03 14:18:18;;;;;;;4.13;3.72;;;;;;;-145.79;50.98;77203.47;5274093;28;20033;-68
2023/09/03 14:20:50;;;;;;;3.60;3.30;;;;;;;-145.79;49.62;77224.66;5271188;28;20083;-68
2023/09/03 14:23:21;;;;;;;4.50;3.10;;;;;;;-145.79;50.04;77224.66;5270501;28;20158;-69
2023/09/03 14:25:53;;;;;;;3.67;3.35;;;;;;;-145.79;50.45;77199.22;5273806;28;20109;-68
2023/09/03 14:28:24;;;;;;;4.30;3.30;;;;;;;-145.79;49.18;77211.94;5274481;28;20032;-70
2023/09/03 14:31:00;;;;;;;4.20;3.80;;;;;;;-145.79;50.07;77211.94;5270906;28;20017;-69
2023/09/03 14:33:31;;;;;;;5.30;4.78;;;;;;;-145.79;50.57;77228.91;5268038;28;20487;-69
2023/09/03 14:36:02;;;;;;;6.38;5.13;;;;;;;-145.79;50.50;77224.66;5274683;28;20050;-69
2023/09/03 14:38:34;;;;;;;4.82;4.43;;;;;;;-145.79;51.38;77218.31;5274459;28;20040;-70
2023/09/03 14:41:05;;;;;;;4.60;4.20;;;;;;;-145.79;51.44;77231.03;5270580;28;20365;-70
2023/09/03 14:43:36;;;;;;;6.53;5.88;;;;;;;-145.79;51.87;77233.16;5270551;28;20043;-70
2023/09/03 14:46:08;;;;;;;6.15;5.65;;;;;;;-145.79;51.86;77241.63;5272588;28;20031;-70
2023/09/03 14:48:39;;;;;;;6.30;5.70;;;;;;;-145.79;52.46;77233.16;5268459;28;20021;-69
2023/09/03 14:51:10;;;;;;;5.68;5.20;;;;;;;-145.79;52.75;77245.84;5272010;28;20043;-69
2023/09/03 14:53:45;;;;;;;5.55;5.07;;;;;;;-145.79;52.57;77235.25;5273644;28;20028;-69
2023/09/03 14:56:21;;;;;;;20.60;18.92;;;;;;;-145.79;52.35;77228.91;5271409;28;20040;-70
2023/09/03 14:58:52;;;;;;;8.65;7.88;;;;;;;-145.79;52.31;77245.84;5270264;28;20032;-70
2023/09/03 15:01:23;;;;;;;6.18;5.60;;;;;;;-145.79;52.27;77250.09;5272257;28;20021;-70
2023/09/03 15:03:55;;;;;;;5.40;4.90;;;;;;;-145.79;52.13;77256.47;5274328;28;20031;-68
2023/09/03 15:06:27;;;;;;;5.53;5.03;;;;;;;-145.79;52.70;77271.28;5260663;28;20032;-68
2023/09/03 15:08:58;;;;;;;5.88;5.38;;;;;;;-145.79;51.77;77286.13;5273194;28;20387;-69
2023/09/03 15:11:29;;;;;;;9.65;8.48;;;;;;;-145.79;52.15;77277.66;5271899;28;20055;-68
2023/09/03 15:14:02;;;;;;;6.05;5.00;;;;;;;-145.79;52.80;77284.00;5268959;28;20044;-69
2023/09/03 15:16:34;;;;;;;5.05;4.65;;;;;;;-145.79;52.11;77298.84;5272492;28;20452;-69
2023/09/03 15:19:05;;;;;;;4.68;4.28;;;;;;;-145.79;52.53;77286.13;5273992;28;20070;-69
2023/09/03 15:21:37;;;;;;;4.35;3.95;;;;;;;-145.79;51.86;77281.91;5270896;28;20567;-68
2023/09/03 15:24:08;;;;;;;4.68;4.07;;;;;;;-145.79;51.96;77294.59;5269749;28;20104;-69
2023/09/03 15:26:39;;;;;;;7.10;5.10;;;;;;;-145.79;51.85;77317.94;5271914;28;20021;-69
2023/09/03 15:29:11;;;;;;;5.03;4.53;;;;;;;-145.79;51.42;77315.81;5272684;28;20052;-68
2023/09/03 15:31:42;;;;;;;5.75;4.15;;;;;;;-145.79;51.81;77307.31;5272396;28;20520;-69
2023/09/03 15:34:14;;;;;;;5.35;4.93;;;;;;;-145.79;51.73;77317.94;5269730;28;20028;-67
2023/09/03 15:36:48;;;;;;;4.85;4.35;;;;;;;-145.79;52.11;77320.03;5270441;28;20021;-69
2023/09/03 15:39:19;;;;;;;4.40;4.00;;;;;;;-145.79;51.16;77326.41;5272578;28;20028;-69
2023/09/03 15:41:50;;;;;;;76.80;70.68;;;;;;;-145.79;51.43;77305.22;5275858;28;20025;-69
2023/09/03 15:44:28;;;;;;;16.45;15.23;;;;;;;-145.79;51.03;77324.28;5271684;28;20033;-69
2023/09/03 15:46:59;;;;;;;4.47;4.07;;;;;;;-145.79;51.02;77326.41;5275876;28;20060;-69
2023/09/03 15:49:30;;;;;;;4.40;4.00;;;;;;;-145.79;51.00;77343.38;5277241;28;20052;-68
2023/09/03 15:52:02;;;;;;;3.85;3.53;;;;;;;-145.79;51.55;77326.41;5276506;28;20043;-69
2023/09/03 15:54:36;;;;;;;4.20;3.80;;;;;;;-145.79;51.58;77349.72;5273762;28;20033;-68
2023/09/03 15:57:08;;;;;;;3.58;3.28;;;;;;;-145.79;51.24;77339.13;5268993;28;20022;-68
2023/09/03 15:59:39;;;;;;;5.13;3.15;;;;;;;-145.79;51.81;77337.00;5277635;28;20020;-68
2023/09/03 16:02:10;;;;;;;3.83;3.17;;;;;;;-145.79;50.31;77317.94;5276773;28;20387;-69
2023/09/03 16:04:42;;;;;;;4.03;3.63;;;;;;;-145.79;50.94;77343.38;5272889;28;20048;-69
2023/09/03 16:07:13;;;;;;;4.00;3.70;;;;;;;-145.79;50.65;77328.53;5274676;28;20476;-69
2023/09/03 16:09:44;;;;;;;3.97;3.30;;;;;;;-145.79;51.33;77322.16;5277626;28;20116;-67
2023/09/03 16:12:16;;;;;;;3.17;2.95;;;;;;;-145.79;51.49;77309.44;5272797;28;20044;-68
2023/09/03 16:14:47;;;;;;;3.33;2.97;;;;;;;-145.79;50.57;77317.94;5270072;28;20024;-67
2023/09/03 16:17:19;;;;;;;4.18;3.72;;;;;;;-145.79;49.90;77307.31;5276566;28;20069;-69
2023/09/03 16:19:50;;;;;;;4.97;3.75;;;;;;;-145.79;50.27;77317.94;5273231;28;20471;-68
2023/09/03 16:22:22;;;;;;;4.20;3.80;;;;;;;-145.79;49.84;77303.09;5273441;28;20068;-69
2023/09/03 16:24:53;;;;;;;4.00;3.60;;;;;;;-145.79;50.23;77298.84;5276537;28;20441;-69
2023/09/03 16:27:27;;;;;;;4.90;3.88;;;;;;;-145.79;50.50;77313.69;5277308;28;20029;-68
2023/09/03 16:29:58;;;;;;;3.95;3.40;;;;;;;-145.79;50.77;77307.31;5273007;28;20044;-68
2023/09/03 16:32:30;;;;;;;6.55;4.07;;;;;;;-145.79;50.66;77311.56;5270500;28;20033;-68
2023/09/03 16:35:01;;;;;;;3.90;3.60;;;;;;;-145.79;50.74;77343.38;5276613;28;20515;-68
2023/09/03 16:37:32;;;;;;;4.00;3.60;;;;;;;-145.79;51.44;77330.66;5277424;28;20050;-68
2023/09/03 16:40:05;;;;;;;4.57;4.05;;;;;;;-145.79;49.79;77317.94;5272775;28;20171;-69
2023/09/03 16:42:37;;;;;;;4.10;3.53;;;;;;;-145.79;49.87;77317.94;5273155;28;20474;-69
2023/09/03 16:45:09;;;;;;;4.03;3.72;;;;;;;-145.79;50.23;77326.41;5276044;28;20032;-69
2023/09/03 16:47:40;;;;;;;3.28;2.95;;;;;;;-145.79;49.57;77326.41;5270155;28;20108;-69
2023/09/03 16:50:11;;;;;;;3.45;3.05;;;;;;;-145.79;49.67;77328.53;5272701;28;20344;-69
2023/09/03 16:52:43;;;;;;;4.95;3.10;;;;;;;-145.79;50.00;77334.88;5267375;28;20048;-71
